createdAt,value
2018-02-12T00:00:39.132Z,2.60
2018-02-12T00:03:07.367Z,2.60
2018-02-12T00:05:34.897Z,2.60
2018-02-12T00:08:02.324Z,2.50
2018-02-12T00:10:29.783Z,2.50
2018-02-12T00:12:57.271Z,2.60
2018-02-12T00:15:24.847Z,2.50
2018-02-12T00:17:52.335Z,2.50
2018-02-12T00:20:19.888Z,2.50
2018-02-12T00:22:47.368Z,2.50
2018-02-12T00:25:14.924Z,2.40
2018-02-12T00:27:42.526Z,2.50
2018-02-12T00:30:09.992Z,2.60
2018-02-12T00:32:37.542Z,2.70
2018-02-12T00:35:05.211Z,2.70
2018-02-12T00:37:32.676Z,2.70
2018-02-12T00:40:00.148Z,2.70
2018-02-12T00:42:27.631Z,2.60
2018-02-12T00:44:55.096Z,2.70
2018-02-12T00:47:22.663Z,2.80
2018-02-12T00:49:50.233Z,2.80
2018-02-12T00:52:17.696Z,2.80
2018-02-12T00:54:45.184Z,2.90
2018-02-12T00:57:12.651Z,2.90
2018-02-12T00:59:40.212Z,2.90
2018-02-12T01:02:07.684Z,3.00
2018-02-12T01:04:35.147Z,2.80
2018-02-12T01:07:02.620Z,2.90
2018-02-12T01:09:30.088Z,2.90
2018-02-12T01:11:57.556Z,2.90
2018-02-12T01:14:25.028Z,2.90
2018-02-12T01:16:52.500Z,2.80
2018-02-12T01:19:19.968Z,2.90
2018-02-12T01:21:47.445Z,2.80
2018-02-12T01:24:15.019Z,2.90
2018-02-12T01:26:42.680Z,2.90
2018-02-12T01:29:10.140Z,2.90
2018-02-12T01:31:37.624Z,2.80
2018-02-12T01:34:05.192Z,2.80
2018-02-12T01:36:32.672Z,2.80
2018-02-12T01:39:00.278Z,2.80
2018-02-12T01:41:27.703Z,2.70
2018-02-12T01:43:55.169Z,2.70
2018-02-12T01:46:22.639Z,2.80
2018-02-12T01:48:50.111Z,2.80
2018-02-12T01:51:17.584Z,2.90
2018-02-12T01:53:45.056Z,3.00
2018-02-12T01:56:12.724Z,2.90
2018-02-12T01:58:40.190Z,3.00
2018-02-12T02:01:07.648Z,3.00
2018-02-12T02:03:35.142Z,3.10
2018-02-12T02:06:02.615Z,3.00
2018-02-12T02:08:30.107Z,3.00
2018-02-12T02:10:58.351Z,3.00
2018-02-12T02:13:25.819Z,3.00
2018-02-12T02:15:53.284Z,3.00
2018-02-12T02:18:20.776Z,2.80
2018-02-12T02:20:48.266Z,2.70
2018-02-12T02:23:16.520Z,2.90
2018-02-12T02:25:43.996Z,2.90
2018-02-12T02:28:11.572Z,3.00
2018-02-12T02:30:39.039Z,3.00
2018-02-12T02:33:06.513Z,2.90
2018-02-12T02:35:33.972Z,2.90
2018-02-12T02:38:01.459Z,2.80
2018-02-12T02:40:29.016Z,2.90
2018-02-12T02:42:56.480Z,2.90
2018-02-12T02:45:38.087Z,2.90
2018-02-12T02:48:05.551Z,2.90
2018-02-12T02:50:33.235Z,2.80
2018-02-12T02:53:00.683Z,2.90
2018-02-12T02:55:28.152Z,2.90
2018-02-12T02:57:55.655Z,2.90
2018-02-12T03:00:23.115Z,2.80
2018-02-12T03:02:50.675Z,2.90
2018-02-12T03:05:18.149Z,2.90
2018-02-12T03:07:45.608Z,2.90
2018-02-12T03:10:13.066Z,2.90
2018-02-12T03:12:40.535Z,2.80
2018-02-12T03:15:08.004Z,2.80
2018-02-12T03:17:35.467Z,2.90
2018-02-12T03:20:02.957Z,2.80
2018-02-12T03:22:30.408Z,2.80
2018-02-12T03:24:57.865Z,2.90
2018-02-12T03:27:25.375Z,2.90
2018-02-12T03:29:52.852Z,2.90
2018-02-12T03:32:20.327Z,2.80
2018-02-12T03:34:47.893Z,2.80
2018-02-12T03:37:15.359Z,2.80
2018-02-12T03:39:42.920Z,2.80
2018-02-12T03:42:10.392Z,2.80
2018-02-12T03:44:37.868Z,2.80
2018-02-12T03:47:05.331Z,2.70
2018-02-12T03:49:32.804Z,2.60
2018-02-12T03:52:00.267Z,2.70
2018-02-12T03:54:27.727Z,2.70
2018-02-12T03:56:55.311Z,2.70
2018-02-12T03:59:22.772Z,2.70
2018-02-12T04:01:50.299Z,2.70
2018-02-12T04:04:17.824Z,2.80
2018-02-12T04:06:45.291Z,2.70
2018-02-12T04:09:12.860Z,2.70
2018-02-12T04:11:40.334Z,2.80
2018-02-12T04:14:07.811Z,2.80
2018-02-12T04:16:35.380Z,2.90
2018-02-12T04:19:02.836Z,2.70
2018-02-12T04:21:30.325Z,2.70
2018-02-12T04:23:57.780Z,2.60
2018-02-12T04:26:25.236Z,2.60
2018-02-12T04:28:52.832Z,2.70
2018-02-12T04:31:20.302Z,2.70
2018-02-12T04:33:47.913Z,2.60
2018-02-12T04:36:16.157Z,2.60
2018-02-12T04:38:43.620Z,2.50
2018-02-12T04:41:11.092Z,2.60
2018-02-12T04:43:38.763Z,2.60
2018-02-12T04:46:06.239Z,2.60
2018-02-12T04:48:33.696Z,2.60
2018-02-12T04:51:01.172Z,2.60
2018-02-12T04:53:28.654Z,2.50
2018-02-12T04:55:56.096Z,2.50
2018-02-12T04:58:23.563Z,2.40
2018-02-12T05:00:51.009Z,2.40
2018-02-12T05:03:18.570Z,2.50
2018-02-12T05:05:46.821Z,2.50
2018-02-12T05:08:14.387Z,2.50
2018-02-12T05:10:41.840Z,2.50
2018-02-12T05:13:09.321Z,2.40
2018-02-12T05:15:36.772Z,2.30
2018-02-12T05:18:04.227Z,2.30
2018-02-12T05:20:31.724Z,2.30
2018-02-12T05:22:59.209Z,2.30
2018-02-12T05:25:26.672Z,2.30
2018-02-12T05:27:54.133Z,2.20
2018-02-12T05:30:21.605Z,2.30
2018-02-12T05:32:49.089Z,2.30
2018-02-12T05:35:16.548Z,2.30
2018-02-12T05:37:44.032Z,2.30
2018-02-12T05:40:11.583Z,2.30
2018-02-12T05:42:39.064Z,2.30
2018-02-12T05:45:06.632Z,2.30
2018-02-12T05:47:34.093Z,2.30
2018-02-12T05:50:01.616Z,2.40
2018-02-12T05:52:29.861Z,2.40
2018-02-12T05:54:57.340Z,2.30
2018-02-12T05:57:24.800Z,2.40
2018-02-12T05:59:52.260Z,2.50
2018-02-12T06:02:20.487Z,2.40
2018-02-12T06:04:48.728Z,2.50
2018-02-12T06:07:16.184Z,2.40
2018-02-12T06:09:43.644Z,2.50
2018-02-12T06:12:11.100Z,2.50
2018-02-12T06:14:38.559Z,2.50
2018-02-12T06:17:06.052Z,2.50
2018-02-12T06:19:33.564Z,2.50
2018-02-12T06:22:01.807Z,2.40
2018-02-12T06:24:29.308Z,2.40
2018-02-12T06:26:56.776Z,2.50
2018-02-12T06:29:24.232Z,2.50
2018-02-12T06:31:51.696Z,2.50
2018-02-12T06:34:19.188Z,2.40
2018-02-12T06:36:46.684Z,2.40
2018-02-12T06:39:14.914Z,2.30
2018-02-12T06:41:42.420Z,2.30
2018-02-12T06:44:09.980Z,2.30
2018-02-12T06:46:37.497Z,2.30
2018-02-12T06:49:06.469Z,2.20
2018-02-12T06:51:34.033Z,2.20
2018-02-12T06:54:01.489Z,2.30
2018-02-12T06:56:28.972Z,2.30
2018-02-12T06:58:56.486Z,2.30
2018-02-12T07:01:24.713Z,2.30
2018-02-12T07:03:52.204Z,2.30
2018-02-12T07:06:19.688Z,2.40
2018-02-12T07:08:47.996Z,2.40
2018-02-12T07:11:16.223Z,2.50
2018-02-12T07:13:43.680Z,2.50
2018-02-12T07:16:11.230Z,2.50
2018-02-12T07:18:39.456Z,2.50
2018-02-12T07:21:06.916Z,2.50
2018-02-12T07:23:34.408Z,2.60
2018-02-12T07:26:01.887Z,2.60
2018-02-12T07:28:29.351Z,2.60
2018-02-12T07:30:56.816Z,2.50
2018-02-12T07:33:24.296Z,2.50
2018-02-12T07:35:51.768Z,2.50
2018-02-12T07:38:19.213Z,2.40
2018-02-12T07:40:46.700Z,2.30
2018-02-12T07:43:14.164Z,2.30
2018-02-12T07:45:41.645Z,2.30
2018-02-12T07:48:09.225Z,2.40
2018-02-12T07:50:36.888Z,2.30
2018-02-12T07:53:04.336Z,2.50
2018-02-12T07:55:31.804Z,2.60
2018-02-12T07:57:59.491Z,2.70
2018-02-12T08:00:26.949Z,2.90
2018-02-12T08:02:54.404Z,2.90
2018-02-12T08:05:21.867Z,2.90
2018-02-12T08:07:49.348Z,2.90
2018-02-12T08:10:16.834Z,2.90
2018-02-12T08:12:44.403Z,2.90
2018-02-12T08:15:11.865Z,3.10
2018-02-12T08:17:39.311Z,3.20
2018-02-12T08:20:06.785Z,3.20
2018-02-12T08:22:34.288Z,3.30
2018-02-12T08:25:01.760Z,3.10
2018-02-12T08:27:29.223Z,3.20
2018-02-12T08:29:56.681Z,3.30
2018-02-12T08:32:24.175Z,3.30
2018-02-12T08:34:51.626Z,3.30
2018-02-12T08:37:19.092Z,3.30
2018-02-12T08:39:46.576Z,3.20
2018-02-12T08:42:14.025Z,3.10
2018-02-12T08:44:41.485Z,2.90
2018-02-12T08:47:08.956Z,2.90
2018-02-12T08:49:36.412Z,2.90
2018-02-12T08:52:03.890Z,3.00
2018-02-12T08:54:31.384Z,3.00
2018-02-12T08:56:58.841Z,3.10
2018-02-12T08:59:26.307Z,3.10
2018-02-12T09:01:53.776Z,3.20
2018-02-12T09:04:21.268Z,3.30
2018-02-12T09:06:48.744Z,3.40
2018-02-12T09:09:16.204Z,3.30
2018-02-12T09:11:44.441Z,3.20
2018-02-12T09:14:11.900Z,3.20
2018-02-12T09:16:40.132Z,3.50
2018-02-12T09:19:07.600Z,3.50
2018-02-12T09:21:35.088Z,3.60
2018-02-12T09:24:02.557Z,3.70
2018-02-12T09:26:30.019Z,3.70
2018-02-12T09:28:57.471Z,3.80
2018-02-12T09:31:24.928Z,3.70
2018-02-12T09:33:52.397Z,3.50
2018-02-12T09:36:19.885Z,3.40
2018-02-12T09:38:47.347Z,3.50
2018-02-12T09:41:14.807Z,3.40
2018-02-12T09:43:42.311Z,3.40
2018-02-12T09:46:09.783Z,3.40
2018-02-12T09:48:37.245Z,3.30
2018-02-12T09:51:04.720Z,3.30
2018-02-12T09:53:32.180Z,3.30
2018-02-12T09:55:59.651Z,3.30
2018-02-12T09:58:27.124Z,3.40
2018-02-12T10:00:54.604Z,3.40
2018-02-12T10:03:22.068Z,3.60
2018-02-12T10:05:49.542Z,3.60
2018-02-12T10:08:17.004Z,3.80
2018-02-12T10:10:44.476Z,3.90
2018-02-12T10:13:11.951Z,3.70
2018-02-12T10:15:39.424Z,3.70
2018-02-12T10:18:06.892Z,3.80
2018-02-12T10:20:34.383Z,3.90
2018-02-12T10:23:04.010Z,4.00
2018-02-12T10:25:29.412Z,4.10
2018-02-12T10:27:56.893Z,4.20
2018-02-12T10:30:24.351Z,4.40
2018-02-12T10:32:51.916Z,4.40
2018-02-12T10:35:19.396Z,4.30
2018-02-12T10:37:46.960Z,4.50
2018-02-12T10:40:14.416Z,4.60
2018-02-12T10:42:41.904Z,4.40
2018-02-12T10:45:09.459Z,4.30
2018-02-12T10:47:36.912Z,4.30
2018-02-12T10:50:04.382Z,4.60
2018-02-12T10:52:31.839Z,4.70
2018-02-12T10:54:59.336Z,4.70
2018-02-12T10:57:26.808Z,4.60
2018-02-12T10:59:54.269Z,4.70
2018-02-12T11:02:21.788Z,4.90
2018-02-12T11:04:50.052Z,5.10
2018-02-12T11:07:17.579Z,5.10
2018-02-12T11:09:45.784Z,5.40
2018-02-12T11:12:13.267Z,5.40
2018-02-12T11:14:40.736Z,5.50
2018-02-12T11:17:08.212Z,5.40
2018-02-12T11:19:35.796Z,5.50
2018-02-12T11:22:03.289Z,5.50
2018-02-12T11:24:31.532Z,5.40
2018-02-12T11:26:59.108Z,5.30
2018-02-12T11:29:26.568Z,5.10
2018-02-12T11:31:54.040Z,5.10
2018-02-12T11:34:21.612Z,5.10
2018-02-12T11:36:49.196Z,5.30
2018-02-12T11:39:16.663Z,5.50
2018-02-12T11:41:44.240Z,5.90
2018-02-12T11:44:11.708Z,6.50
2018-02-12T11:46:39.267Z,6.80
2018-02-12T11:49:06.728Z,7.30
2018-02-12T11:51:34.184Z,7.70
2018-02-12T11:54:01.664Z,8.00
2018-02-12T11:56:29.144Z,8.50
2018-02-12T11:58:56.616Z,9.00
2018-02-12T12:01:24.088Z,9.00
2018-02-12T12:03:51.563Z,8.60
2018-02-12T12:06:19.028Z,8.20
2018-02-12T12:08:47.272Z,8.40
2018-02-12T12:11:14.789Z,8.30
2018-02-12T12:13:42.352Z,8.40
2018-02-12T12:16:09.932Z,8.70
2018-02-12T12:18:37.404Z,8.80
2018-02-12T12:21:04.872Z,9.30
2018-02-12T12:23:33.170Z,8.40
2018-02-12T12:26:00.721Z,8.40
2018-02-12T12:28:28.202Z,8.40
2018-02-12T12:30:55.672Z,8.50
2018-02-12T12:33:23.237Z,8.10
2018-02-12T12:35:50.692Z,7.70
2018-02-12T12:38:18.388Z,7.40
2018-02-12T12:40:45.864Z,7.00
2018-02-12T12:43:13.428Z,7.60
2018-02-12T12:45:40.936Z,8.20
2018-02-12T12:48:08.405Z,8.70
2018-02-12T12:50:35.940Z,9.30
2018-02-12T12:53:03.507Z,9.80
2018-02-12T12:55:31.175Z,10.10
2018-02-12T12:57:58.644Z,9.60
2018-02-12T13:00:26.104Z,9.50
2018-02-12T13:02:53.684Z,9.60
2018-02-12T13:05:21.161Z,9.50
2018-02-12T13:07:48.732Z,9.40
2018-02-12T13:10:16.216Z,9.00
2018-02-12T13:12:43.691Z,9.10
2018-02-12T13:15:11.236Z,9.30
2018-02-12T13:17:38.724Z,9.70
2018-02-12T13:20:06.280Z,9.60
2018-02-12T13:22:33.778Z,9.50
2018-02-12T13:25:01.999Z,9.60
2018-02-12T13:27:29.513Z,9.60
2018-02-12T13:29:56.988Z,9.70
2018-02-12T13:32:24.447Z,9.70
2018-02-12T13:34:51.928Z,9.90
2018-02-12T13:37:19.488Z,9.10
2018-02-12T13:39:46.948Z,9.40
2018-02-12T13:42:14.738Z,9.30
2018-02-12T13:44:42.309Z,9.70
2018-02-12T13:47:09.772Z,10.40
2018-02-12T13:49:37.344Z,10.90
2018-02-12T13:52:04.808Z,11.30
2018-02-12T13:54:32.297Z,10.70
2018-02-12T13:56:59.762Z,11.20
2018-02-12T13:59:27.224Z,11.80
2018-02-12T14:01:54.799Z,11.80
2018-02-12T14:04:22.260Z,10.80
2018-02-12T14:06:49.748Z,10.90
2018-02-12T14:09:17.223Z,11.10
2018-02-12T14:11:44.724Z,10.80
2018-02-12T14:14:12.205Z,10.40
2018-02-12T14:16:39.720Z,10.40
2018-02-12T14:19:07.294Z,10.80
2018-02-12T14:21:34.760Z,10.90
2018-02-12T14:24:02.228Z,10.80
2018-02-12T14:26:29.709Z,10.10
2018-02-12T14:28:57.265Z,9.20
2018-02-12T14:31:24.747Z,8.70
2018-02-12T14:33:52.213Z,8.70
2018-02-12T14:36:19.684Z,9.20
2018-02-12T14:38:47.199Z,10.20
2018-02-12T14:41:14.667Z,10.00
2018-02-12T14:43:42.145Z,9.40
2018-02-12T14:46:09.600Z,9.00
2018-02-12T14:48:37.831Z,8.40
2018-02-12T14:51:05.412Z,8.40
2018-02-12T14:53:32.872Z,8.60
2018-02-12T14:56:00.460Z,9.00
2018-02-12T14:58:27.943Z,9.60
2018-02-12T15:00:55.412Z,9.80
2018-02-12T15:03:22.888Z,10.50
2018-02-12T15:05:50.356Z,10.50
2018-02-12T15:08:17.837Z,10.10
2018-02-12T15:10:46.098Z,9.10
2018-02-12T15:13:13.704Z,9.10
2018-02-12T15:15:41.952Z,8.40
2018-02-12T15:18:09.412Z,8.40
2018-02-12T15:20:36.876Z,7.90
2018-02-12T15:23:04.332Z,8.00
2018-02-12T15:25:31.791Z,8.30
2018-02-12T15:27:59.305Z,8.50
2018-02-12T15:30:26.794Z,8.70
2018-02-12T15:32:54.244Z,8.80
2018-02-12T15:35:21.708Z,8.90
2018-02-12T15:37:49.297Z,9.00
2018-02-12T15:40:16.753Z,9.10
2018-02-12T15:42:44.281Z,8.60
2018-02-12T15:45:11.789Z,8.50
2018-02-12T15:47:39.264Z,8.40
2018-02-12T15:50:06.720Z,8.30
2018-02-12T15:52:34.196Z,8.30
2018-02-12T15:55:01.723Z,8.20
2018-02-12T15:57:29.182Z,8.10
2018-02-12T15:59:57.431Z,7.90
2018-02-12T16:02:24.905Z,7.80
2018-02-12T16:04:52.373Z,7.60
2018-02-12T16:07:20.628Z,7.20
2018-02-12T16:09:48.104Z,7.20
2018-02-12T16:12:15.571Z,7.00
2018-02-12T16:14:43.051Z,6.80
2018-02-12T16:17:10.545Z,6.80
2018-02-12T16:19:38.124Z,6.70
2018-02-12T16:22:05.579Z,6.70
2018-02-12T16:24:33.028Z,6.70
2018-02-12T16:27:00.496Z,6.70
2018-02-12T16:29:28.089Z,6.70
2018-02-12T16:31:55.552Z,6.50
2018-02-12T16:34:23.008Z,6.30
2018-02-12T16:36:50.484Z,6.30
2018-02-12T16:39:17.938Z,6.30
2018-02-12T16:41:45.437Z,6.30
2018-02-12T16:44:12.924Z,6.10
2018-02-12T16:46:40.384Z,6.00
2018-02-12T16:49:09.348Z,5.80
2018-02-12T16:51:36.849Z,5.80
2018-02-12T16:54:04.301Z,5.80
2018-02-12T16:56:32.553Z,5.80
2018-02-12T16:59:00.896Z,5.80
2018-02-12T17:01:28.364Z,5.80
2018-02-12T17:03:55.817Z,5.70
2018-02-12T17:06:23.305Z,5.60
2018-02-12T17:08:50.771Z,5.60
2018-02-12T17:11:18.256Z,5.50
2018-02-12T17:13:46.540Z,5.40
2018-02-12T17:16:13.996Z,5.40
2018-02-12T17:18:41.468Z,5.40
2018-02-12T17:21:08.932Z,5.40
2018-02-12T17:23:36.527Z,5.40
2018-02-12T17:26:03.996Z,5.30
2018-02-12T17:28:31.448Z,5.30
2018-02-12T17:30:58.912Z,5.20
2018-02-12T17:33:26.376Z,5.20
2018-02-12T17:35:53.832Z,5.20
2018-02-12T17:38:21.325Z,5.20
2018-02-12T17:40:48.849Z,5.20
2018-02-12T17:43:17.087Z,5.10
2018-02-12T17:45:44.548Z,5.10
2018-02-12T17:48:12.021Z,5.00
2018-02-12T17:50:39.501Z,5.00
2018-02-12T17:53:07.064Z,4.90
2018-02-12T17:55:34.557Z,4.90
2018-02-12T17:58:02.044Z,4.70
2018-02-12T18:00:30.344Z,4.80
2018-02-12T18:02:58.560Z,4.90
2018-02-12T18:05:26.069Z,4.90
2018-02-12T18:07:55.040Z,4.90
2018-02-12T18:10:22.528Z,4.90
2018-02-12T18:12:50.110Z,4.80
2018-02-12T18:15:17.684Z,4.80
2018-02-12T18:17:45.243Z,4.80
2018-02-12T18:20:12.703Z,4.80
2018-02-12T18:22:40.176Z,4.60
2018-02-12T18:25:07.656Z,4.70
2018-02-12T18:27:35.220Z,4.70
2018-02-12T18:30:02.676Z,4.70
2018-02-12T18:32:30.144Z,4.60
2018-02-12T18:34:57.615Z,4.50
2018-02-12T18:37:25.188Z,4.50
2018-02-12T18:39:52.648Z,4.50
2018-02-12T18:42:20.111Z,4.50
2018-02-12T18:44:47.616Z,4.50
2018-02-12T18:47:15.064Z,4.30
2018-02-12T18:49:42.551Z,4.10
2018-02-12T18:52:10.227Z,4.10
2018-02-12T18:54:37.688Z,4.10
2018-02-12T18:57:05.164Z,4.10
2018-02-12T18:59:32.748Z,4.10
2018-02-12T19:02:00.988Z,4.10
2018-02-12T19:04:28.518Z,4.10
2018-02-12T19:06:56.794Z,4.10
2018-02-12T19:09:24.264Z,4.10
2018-02-12T19:11:51.929Z,4.10
2018-02-12T19:14:19.406Z,4.10
2018-02-12T19:16:46.880Z,4.10
2018-02-12T19:19:14.445Z,4.00
2018-02-12T19:21:41.936Z,4.00
2018-02-12T19:24:10.166Z,3.90
2018-02-12T19:26:37.775Z,3.90
2018-02-12T19:29:05.351Z,3.80
2018-02-12T19:31:32.811Z,3.90
2018-02-12T19:34:00.395Z,3.80
2018-02-12T19:36:27.844Z,3.80
2018-02-12T19:38:55.316Z,3.80
2018-02-12T19:41:22.792Z,3.80
2018-02-12T19:43:50.277Z,3.80
2018-02-12T19:46:17.757Z,3.70
2018-02-12T19:48:45.407Z,3.70
2018-02-12T19:51:12.975Z,3.70
2018-02-12T19:53:40.440Z,3.70
2018-02-12T19:56:07.904Z,3.70
2018-02-12T19:58:35.380Z,3.60
2018-02-12T20:01:02.887Z,3.60
2018-02-12T20:03:31.280Z,3.60
2018-02-12T20:05:58.868Z,3.60
2018-02-12T20:08:26.320Z,3.60
2018-02-12T20:10:54.560Z,3.60
2018-02-12T20:13:22.049Z,3.60
2018-02-12T20:15:49.565Z,3.50
2018-02-12T20:18:17.792Z,3.40
2018-02-12T20:20:45.250Z,3.50
2018-02-12T20:23:12.796Z,3.50
2018-02-12T20:25:40.312Z,3.50
2018-02-12T20:28:07.767Z,3.50
2018-02-12T20:30:35.237Z,3.50
2018-02-12T20:33:02.732Z,3.50
2018-02-12T20:35:30.296Z,3.40
2018-02-12T20:37:57.789Z,3.40
2018-02-12T20:40:25.336Z,3.40
2018-02-12T20:42:52.792Z,3.40
2018-02-12T20:45:20.388Z,3.30
2018-02-12T20:47:47.856Z,3.40
2018-02-12T20:50:15.315Z,3.40
2018-02-12T20:52:42.788Z,3.40
2018-02-12T20:55:10.356Z,3.50
2018-02-12T20:57:37.819Z,3.50
2018-02-12T21:00:05.288Z,3.40
2018-02-12T21:02:32.752Z,3.40
2018-02-12T21:05:00.289Z,3.30
2018-02-12T21:07:27.927Z,3.20
2018-02-12T21:09:56.160Z,3.20
2018-02-12T21:12:23.619Z,3.20
2018-02-12T21:14:51.114Z,3.20
2018-02-12T21:17:18.600Z,3.10
2018-02-12T21:19:46.075Z,3.10
2018-02-12T21:24:52.125Z,3.00
2018-02-12T21:27:20.377Z,2.90
2018-02-12T21:29:47.931Z,2.90
2018-02-12T21:32:15.404Z,2.90
2018-02-12T21:34:42.964Z,2.80
2018-02-12T21:37:10.451Z,2.80
2018-02-12T21:39:37.916Z,2.70
2018-02-12T21:42:05.403Z,2.70
2018-02-12T21:44:32.964Z,2.70
2018-02-12T21:47:00.416Z,2.70
2018-02-12T21:49:27.880Z,2.70
2018-02-12T21:51:55.348Z,2.70
2018-02-12T21:54:22.811Z,2.70
2018-02-12T21:56:50.314Z,2.60
2018-02-12T21:59:17.885Z,2.60
2018-02-12T22:01:45.549Z,2.60
2018-02-12T22:04:13.016Z,2.60
2018-02-12T22:06:40.475Z,2.60
2018-02-12T22:09:07.952Z,2.60
2018-02-12T22:11:35.428Z,2.50
2018-02-12T22:14:02.888Z,2.50
2018-02-12T22:16:30.376Z,2.50
2018-02-12T22:18:57.832Z,2.50
2018-02-12T22:21:25.304Z,2.50
2018-02-12T22:23:52.777Z,2.40
2018-02-12T22:26:20.239Z,2.40
2018-02-12T22:28:47.705Z,2.40
2018-02-12T22:31:15.161Z,2.30
2018-02-12T22:33:42.664Z,2.30
2018-02-12T22:36:10.224Z,2.20
2018-02-12T22:38:37.795Z,2.20
2018-02-12T22:41:05.252Z,2.20
2018-02-12T22:43:32.712Z,2.20
2018-02-12T22:46:00.181Z,2.20
2018-02-12T22:48:27.652Z,2.20
2018-02-12T22:50:55.120Z,2.20
2018-02-12T22:53:22.584Z,2.20
2018-02-12T22:55:50.079Z,2.20
2018-02-12T22:58:17.540Z,2.20
2018-02-12T23:00:44.996Z,2.20
2018-02-12T23:03:12.488Z,2.20
2018-02-12T23:05:39.960Z,2.20
2018-02-12T23:08:07.527Z,2.20
2018-02-12T23:10:35.200Z,2.10
2018-02-12T23:13:02.676Z,2.10
2018-02-12T23:15:33.996Z,2.10
2018-02-12T23:18:01.527Z,2.00
2018-02-12T23:20:29.077Z,2.00
2018-02-12T23:22:56.527Z,2.00
2018-02-12T23:25:24.016Z,1.90
2018-02-12T23:27:51.468Z,1.90
2018-02-12T23:30:18.962Z,1.90
2018-02-12T23:32:46.432Z,1.90
2018-02-12T23:35:14.002Z,1.90
2018-02-12T23:37:41.565Z,1.90
2018-02-12T23:40:09.029Z,1.90
2018-02-12T23:42:36.507Z,1.80
2018-02-12T23:45:03.988Z,1.80
2018-02-12T23:47:31.476Z,1.80
2018-02-12T23:50:00.020Z,1.80
2018-02-12T23:52:27.510Z,1.80
2018-02-12T23:54:55.096Z,1.80
2018-02-12T23:57:22.655Z,1.70
2018-02-12T23:59:50.131Z,1.80
